sensor_id;sensor_type;location;lat;lon;timestamp;temperature;humidity
28677;DHT22;15858;48.338;11.078;2023-02-27T00:01:42;-1.30;99.90
28677;DHT22;15858;48.338;11.078;2023-02-27T00:04:08;-1.30;99.90
28677;DHT22;15858;48.338;11.078;2023-02-27T00:06:35;-1.30;99.90
28677;DHT22;15858;48.338;11.078;2023-02-27T00:09:02;-1.40;99.90
28677;DHT22;15858;48.338;11.078;2023-02-27T00:11:28;-1.40;99.90
28677;DHT22;15858;48.338;11.078;2023-02-27T00:13:55;-1.50;99.90
28677;DHT22;15858;48.338;11.078;2023-02-27T00:16:22;-1.40;99.90
28677;DHT22;15858;48.338;11.078;2023-02-27T00:18:48;-1.40;99.90
28677;DHT22;15858;48.338;11.078;2023-02-27T00:21:15;-1.50;99.90
28677;DHT22;15858;48.338;11.078;2023-02-27T00:23:41;-1.40;99.90
28677;DHT22;15858;48.338;11.078;2023-02-27T00:26:08;-1.50;99.90
28677;DHT22;15858;48.338;11.078;2023-02-27T00:28:35;-1.60;99.90
28677;DHT22;15858;48.338;11.078;2023-02-27T00:31:01;-1.60;99.90
28677;DHT22;15858;48.338;11.078;2023-02-27T00:33:28;-1.50;99.90
28677;DHT22;15858;48.338;11.078;2023-02-27T00:35:56;-1.50;99.90
28677;DHT22;15858;48.338;11.078;2023-02-27T00:38:23;-1.50;99.90
28677;DHT22;15858;48.338;11.078;2023-02-27T00:40:50;-1.50;99.90
28677;DHT22;15858;48.338;11.078;2023-02-27T00:43:17;-1.50;99.90
28677;DHT22;15858;48.338;11.078;2023-02-27T00:45:43;-1.60;99.90
28677;DHT22;15858;48.338;11.078;2023-02-27T00:48:10;-1.70;99.90
28677;DHT22;15858;48.338;11.078;2023-02-27T00:50:37;-1.60;99.90
28677;DHT22;15858;48.338;11.078;2023-02-27T00:53:04;-1.70;99.90
28677;DHT22;15858;48.338;11.078;2023-02-27T00:55:30;-1.70;99.90
28677;DHT22;15858;48.338;11.078;2023-02-27T00:57:57;-1.80;99.90
28677;DHT22;15858;48.338;11.078;2023-02-27T01:00:24;-1.70;99.90
28677;DHT22;15858;48.338;11.078;2023-02-27T01:02:51;-1.70;99.90
28677;DHT22;15858;48.338;11.078;2023-02-27T01:05:18;-1.70;99.90
28677;DHT22;15858;48.338;11.078;2023-02-27T01:07:44;-1.60;99.90
28677;DHT22;15858;48.338;11.078;2023-02-27T01:10:12;-1.70;99.90
28677;DHT22;15858;48.338;11.078;2023-02-27T01:12:39;-1.70;99.90
28677;DHT22;15858;48.338;11.078;2023-02-27T01:15:07;-1.80;99.90
28677;DHT22;15858;48.338;11.078;2023-02-27T01:17:34;-1.70;99.90
28677;DHT22;15858;48.338;11.078;2023-02-27T01:20:01;-1.60;99.90
28677;DHT22;15858;48.338;11.078;2023-02-27T01:22:27;-1.60;99.90
28677;DHT22;15858;48.338;11.078;2023-02-27T01:24:54;-1.60;99.90
28677;DHT22;15858;48.338;11.078;2023-02-27T01:27:20;-1.60;99.90
28677;DHT22;15858;48.338;11.078;2023-02-27T01:29:47;-1.50;99.90
28677;DHT22;15858;48.338;11.078;2023-02-27T01:32:13;-1.60;99.90
28677;DHT22;15858;48.338;11.078;2023-02-27T01:34:40;-1.70;99.90
28677;DHT22;15858;48.338;11.078;2023-02-27T01:37:07;-1.70;99.90
28677;DHT22;15858;48.338;11.078;2023-02-27T01:39:34;-1.60;99.90
28677;DHT22;15858;48.338;11.078;2023-02-27T01:42:00;-1.60;99.90
28677;DHT22;15858;48.338;11.078;2023-02-27T01:44:29;-1.70;99.90
28677;DHT22;15858;48.338;11.078;2023-02-27T01:46:56;-1.60;99.90
28677;DHT22;15858;48.338;11.078;2023-02-27T01:49:31;-1.60;99.90
28677;DHT22;15858;48.338;11.078;2023-02-27T01:52:07;-1.50;99.90
28677;DHT22;15858;48.338;11.078;2023-02-27T01:54:38;-1.60;99.90
28677;DHT22;15858;48.338;11.078;2023-02-27T01:57:06;-1.60;99.90
28677;DHT22;15858;48.338;11.078;2023-02-27T01:59:34;-1.70;99.90
28677;DHT22;15858;48.338;11.078;2023-02-27T02:02:07;-1.60;99.90
28677;DHT22;15858;48.338;11.078;2023-02-27T02:04:38;-1.50;99.90
28677;DHT22;15858;48.338;11.078;2023-02-27T02:07:09;-1.60;99.90
28677;DHT22;15858;48.338;11.078;2023-02-27T02:09:41;-1.60;99.90
28677;DHT22;15858;48.338;11.078;2023-02-27T02:12:11;-1.50;99.90
28677;DHT22;15858;48.338;11.078;2023-02-27T02:14:39;-1.50;99.90
28677;DHT22;15858;48.338;11.078;2023-02-27T02:17:23;-1.30;99.90
28677;DHT22;15858;48.338;11.078;2023-02-27T02:33:48;-1.40;99.90
28677;DHT22;15858;48.338;11.078;2023-02-27T02:45:29;-1.40;99.90
28677;DHT22;15858;48.338;11.078;2023-02-27T02:53:47;-1.40;99.90
28677;DHT22;15858;48.338;11.078;2023-02-27T02:56:34;-1.40;99.90
28677;DHT22;15858;48.338;11.078;2023-02-27T02:59:07;-1.40;99.90
28677;DHT22;15858;48.338;11.078;2023-02-27T03:01:36;-1.50;99.90
28677;DHT22;15858;48.338;11.078;2023-02-27T03:04:35;-1.40;99.90
28677;DHT22;15858;48.338;11.078;2023-02-27T03:07:28;-1.40;99.90
28677;DHT22;15858;48.338;11.078;2023-02-27T03:10:21;-1.50;99.90
28677;DHT22;15858;48.338;11.078;2023-02-27T03:12:56;-1.40;99.90
28677;DHT22;15858;48.338;11.078;2023-02-27T03:15:29;-1.40;99.90
28677;DHT22;15858;48.338;11.078;2023-02-27T03:18:07;-1.40;99.90
28677;DHT22;15858;48.338;11.078;2023-02-27T03:20:41;-1.50;99.90
28677;DHT22;15858;48.338;11.078;2023-02-27T03:23:16;-1.50;99.90
28677;DHT22;15858;48.338;11.078;2023-02-27T03:25:45;-1.50;99.90
28677;DHT22;15858;48.338;11.078;2023-02-27T03:28:17;-1.50;99.90
28677;DHT22;15858;48.338;11.078;2023-02-27T03:31:07;-1.50;99.90
28677;DHT22;15858;48.338;11.078;2023-02-27T03:34:07;-1.50;99.90
28677;DHT22;15858;48.338;11.078;2023-02-27T03:36:48;-1.60;99.90
28677;DHT22;15858;48.338;11.078;2023-02-27T03:39:26;-1.60;99.90
28677;DHT22;15858;48.338;11.078;2023-02-27T03:42:04;-1.50;99.90
28677;DHT22;15858;48.338;11.078;2023-02-27T03:47:20;-1.50;99.90
28677;DHT22;15858;48.338;11.078;2023-02-27T03:49:47;-1.50;99.90
28677;DHT22;15858;48.338;11.078;2023-02-27T03:52:14;-1.40;99.90
28677;DHT22;15858;48.338;11.078;2023-02-27T03:55:05;-1.50;99.90
28677;DHT22;15858;48.338;11.078;2023-02-27T03:57:35;-1.50;99.90
28677;DHT22;15858;48.338;11.078;2023-02-27T04:00:03;-1.40;99.90
28677;DHT22;15858;48.338;11.078;2023-02-27T04:02:30;-1.40;99.90
28677;DHT22;15858;48.338;11.078;2023-02-27T04:04:57;-1.40;99.90
28677;DHT22;15858;48.338;11.078;2023-02-27T04:07:42;-1.50;99.90
28677;DHT22;15858;48.338;11.078;2023-02-27T04:10:15;-1.30;99.90
28677;DHT22;15858;48.338;11.078;2023-02-27T04:18:42;-1.50;99.90
28677;DHT22;15858;48.338;11.078;2023-02-27T04:21:26;-1.60;99.90
28677;DHT22;15858;48.338;11.078;2023-02-27T04:24:21;-1.60;99.90
28677;DHT22;15858;48.338;11.078;2023-02-27T04:26:57;-1.50;99.90
28677;DHT22;15858;48.338;11.078;2023-02-27T04:32:15;-1.50;99.90
28677;DHT22;15858;48.338;11.078;2023-02-27T04:34:56;-1.50;99.90
28677;DHT22;15858;48.338;11.078;2023-02-27T04:37:28;-1.40;99.90
28677;DHT22;15858;48.338;11.078;2023-02-27T04:40:01;-1.50;99.90
28677;DHT22;15858;48.338;11.078;2023-02-27T04:42:31;-1.50;99.90
28677;DHT22;15858;48.338;11.078;2023-02-27T04:45:02;-1.40;99.90
28677;DHT22;15858;48.338;11.078;2023-02-27T04:47:35;-1.40;99.90
28677;DHT22;15858;48.338;11.078;2023-02-27T04:50:15;-1.50;99.90
28677;DHT22;15858;48.338;11.078;2023-02-27T04:52:47;-1.40;99.90
28677;DHT22;15858;48.338;11.078;2023-02-27T04:55:20;-1.50;99.90
28677;DHT22;15858;48.338;11.078;2023-02-27T04:57:54;-1.50;99.90
28677;DHT22;15858;48.338;11.078;2023-02-27T05:00:25;-1.50;99.90
28677;DHT22;15858;48.338;11.078;2023-02-27T05:02:58;-1.40;99.90
28677;DHT22;15858;48.338;11.078;2023-02-27T05:05:29;-1.50;99.90
28677;DHT22;15858;48.338;11.078;2023-02-27T05:08:11;-1.40;99.90
28677;DHT22;15858;48.338;11.078;2023-02-27T05:11:08;-1.50;99.90
28677;DHT22;15858;48.338;11.078;2023-02-27T05:13:44;-1.40;99.90
28677;DHT22;15858;48.338;11.078;2023-02-27T05:16:20;-1.50;99.90
28677;DHT22;15858;48.338;11.078;2023-02-27T05:18:48;-1.50;99.90
28677;DHT22;15858;48.338;11.078;2023-02-27T05:24:31;-1.40;99.90
28677;DHT22;15858;48.338;11.078;2023-02-27T05:29:55;-1.40;99.90
28677;DHT22;15858;48.338;11.078;2023-02-27T05:32:33;-1.40;99.90
28677;DHT22;15858;48.338;11.078;2023-02-27T05:37:38;-1.50;99.90
28677;DHT22;15858;48.338;11.078;2023-02-27T05:40:08;-1.40;99.90
28677;DHT22;15858;48.338;11.078;2023-02-27T05:42:43;-1.50;99.90
28677;DHT22;15858;48.338;11.078;2023-02-27T05:45:17;-1.40;99.90
28677;DHT22;15858;48.338;11.078;2023-02-27T05:47:51;-1.50;99.90
28677;DHT22;15858;48.338;11.078;2023-02-27T05:50:25;-1.40;99.90
28677;DHT22;15858;48.338;11.078;2023-02-27T05:52:55;-1.50;99.90
28677;DHT22;15858;48.338;11.078;2023-02-27T05:55:39;-1.50;99.90
28677;DHT22;15858;48.338;11.078;2023-02-27T05:58:29;-1.50;99.90
28677;DHT22;15858;48.338;11.078;2023-02-27T06:01:01;-1.50;99.90
28677;DHT22;15858;48.338;11.078;2023-02-27T06:03:30;-1.50;99.90
28677;DHT22;15858;48.338;11.078;2023-02-27T06:05:59;-1.50;99.90
28677;DHT22;15858;48.338;11.078;2023-02-27T06:08:26;-1.50;99.90
28677;DHT22;15858;48.338;11.078;2023-02-27T06:10:53;-1.50;99.90
28677;DHT22;15858;48.338;11.078;2023-02-27T06:13:21;-1.50;99.90
28677;DHT22;15858;48.338;11.078;2023-02-27T06:15:48;-1.50;99.90
28677;DHT22;15858;48.338;11.078;2023-02-27T06:18:15;-1.50;99.90
28677;DHT22;15858;48.338;11.078;2023-02-27T06:20:43;-1.50;99.90
28677;DHT22;15858;48.338;11.078;2023-02-27T06:23:11;-1.50;99.90
28677;DHT22;15858;48.338;11.078;2023-02-27T06:25:38;-1.40;99.90
28677;DHT22;15858;48.338;11.078;2023-02-27T06:28:05;-1.50;99.90
28677;DHT22;15858;48.338;11.078;2023-02-27T06:30:31;-1.50;99.90
28677;DHT22;15858;48.338;11.078;2023-02-27T06:32:58;-1.50;99.90
28677;DHT22;15858;48.338;11.078;2023-02-27T06:35:24;-1.60;99.90
28677;DHT22;15858;48.338;11.078;2023-02-27T06:37:51;-1.60;99.90
28677;DHT22;15858;48.338;11.078;2023-02-27T06:40:18;-1.60;99.90
28677;DHT22;15858;48.338;11.078;2023-02-27T06:42:44;-1.60;99.90
28677;DHT22;15858;48.338;11.078;2023-02-27T06:45:13;-1.50;99.90
28677;DHT22;15858;48.338;11.078;2023-02-27T06:47:40;-1.40;99.90
28677;DHT22;15858;48.338;11.078;2023-02-27T06:50:09;-1.40;99.90
28677;DHT22;15858;48.338;11.078;2023-02-27T06:52:36;-1.30;99.90
28677;DHT22;15858;48.338;11.078;2023-02-27T06:55:05;-1.30;99.90
28677;DHT22;15858;48.338;11.078;2023-02-27T06:57:32;-1.40;99.90
28677;DHT22;15858;48.338;11.078;2023-02-27T06:59:59;-1.50;99.90
28677;DHT22;15858;48.338;11.078;2023-02-27T07:02:26;-1.50;99.90
28677;DHT22;15858;48.338;11.078;2023-02-27T07:04:52;-1.40;99.90
28677;DHT22;15858;48.338;11.078;2023-02-27T07:07:19;-1.50;99.90
28677;DHT22;15858;48.338;11.078;2023-02-27T07:10:07;-1.50;99.90
28677;DHT22;15858;48.338;11.078;2023-02-27T07:12:34;-1.50;99.90
28677;DHT22;15858;48.338;11.078;2023-02-27T07:15:01;-1.50;99.90
28677;DHT22;15858;48.338;11.078;2023-02-27T07:17:27;-1.50;99.90
28677;DHT22;15858;48.338;11.078;2023-02-27T07:19:54;-1.50;99.90
28677;DHT22;15858;48.338;11.078;2023-02-27T07:22:21;-1.40;99.90
28677;DHT22;15858;48.338;11.078;2023-02-27T07:24:47;-1.30;99.90
28677;DHT22;15858;48.338;11.078;2023-02-27T07:27:14;-1.40;99.90
28677;DHT22;15858;48.338;11.078;2023-02-27T07:29:40;-1.30;99.90
28677;DHT22;15858;48.338;11.078;2023-02-27T07:32:07;-1.30;99.90
28677;DHT22;15858;48.338;11.078;2023-02-27T07:34:34;-1.30;99.90
28677;DHT22;15858;48.338;11.078;2023-02-27T07:37:00;-1.10;99.90
28677;DHT22;15858;48.338;11.078;2023-02-27T07:39:27;-1.20;99.90
28677;DHT22;15858;48.338;11.078;2023-02-27T07:41:53;-1.20;99.90
28677;DHT22;15858;48.338;11.078;2023-02-27T07:44:20;-1.10;99.90
28677;DHT22;15858;48.338;11.078;2023-02-27T07:46:47;-1.00;99.90
28677;DHT22;15858;48.338;11.078;2023-02-27T07:49:13;-1.10;99.90
28677;DHT22;15858;48.338;11.078;2023-02-27T07:51:40;-0.90;99.90
28677;DHT22;15858;48.338;11.078;2023-02-27T07:54:06;-0.80;99.90
28677;DHT22;15858;48.338;11.078;2023-02-27T07:56:33;-0.80;99.90
28677;DHT22;15858;48.338;11.078;2023-02-27T07:59:00;-0.80;99.90
28677;DHT22;15858;48.338;11.078;2023-02-27T08:01:26;-0.90;99.90
28677;DHT22;15858;48.338;11.078;2023-02-27T08:03:54;-0.70;99.90
28677;DHT22;15858;48.338;11.078;2023-02-27T08:06:21;-0.60;99.90
28677;DHT22;15858;48.338;11.078;2023-02-27T08:08:48;-0.50;99.90
28677;DHT22;15858;48.338;11.078;2023-02-27T08:11:15;-0.40;99.90
28677;DHT22;15858;48.338;11.078;2023-02-27T08:13:41;-0.40;99.90
28677;DHT22;15858;48.338;11.078;2023-02-27T08:16:25;-0.30;99.90
28677;DHT22;15858;48.338;11.078;2023-02-27T08:18:53;-0.30;99.90
28677;DHT22;15858;48.338;11.078;2023-02-27T08:21:19;-0.40;99.90
28677;DHT22;15858;48.338;11.078;2023-02-27T08:23:46;-0.50;99.90
28677;DHT22;15858;48.338;11.078;2023-02-27T08:26:13;-0.50;99.90
28677;DHT22;15858;48.338;11.078;2023-02-27T08:28:40;-0.50;99.90
28677;DHT22;15858;48.338;11.078;2023-02-27T08:31:07;-0.50;99.90
28677;DHT22;15858;48.338;11.078;2023-02-27T08:33:34;-0.60;99.90
28677;DHT22;15858;48.338;11.078;2023-02-27T08:36:01;-0.50;99.90
28677;DHT22;15858;48.338;11.078;2023-02-27T08:38:28;-0.50;99.90
28677;DHT22;15858;48.338;11.078;2023-02-27T08:40:54;-0.50;99.90
28677;DHT22;15858;48.338;11.078;2023-02-27T08:43:22;-0.40;99.90
28677;DHT22;15858;48.338;11.078;2023-02-27T08:45:49;-0.50;99.90
28677;DHT22;15858;48.338;11.078;2023-02-27T08:48:17;-0.50;99.90
28677;DHT22;15858;48.338;11.078;2023-02-27T08:50:44;-0.50;99.90
28677;DHT22;15858;48.338;11.078;2023-02-27T08:53:11;-0.40;99.90
28677;DHT22;15858;48.338;11.078;2023-02-27T08:55:38;-0.60;99.90
28677;DHT22;15858;48.338;11.078;2023-02-27T08:58:05;-0.50;99.90
28677;DHT22;15858;48.338;11.078;2023-02-27T09:00:31;-0.50;99.90
28677;DHT22;15858;48.338;11.078;2023-02-27T09:02:58;-0.50;99.90
28677;DHT22;15858;48.338;11.078;2023-02-27T09:05:26;-0.50;99.90
28677;DHT22;15858;48.338;11.078;2023-02-27T09:07:53;-0.40;99.90
28677;DHT22;15858;48.338;11.078;2023-02-27T09:10:19;-0.40;99.90
28677;DHT22;15858;48.338;11.078;2023-02-27T09:12:46;-0.50;99.90
28677;DHT22;15858;48.338;11.078;2023-02-27T09:15:12;-0.30;99.90
28677;DHT22;15858;48.338;11.078;2023-02-27T09:17:39;-0.40;99.90
28677;DHT22;15858;48.338;11.078;2023-02-27T09:20:06;-0.30;99.90
28677;DHT22;15858;48.338;11.078;2023-02-27T09:22:33;-0.40;99.90
28677;DHT22;15858;48.338;11.078;2023-02-27T09:24:59;-0.50;99.90
28677;DHT22;15858;48.338;11.078;2023-02-27T09:27:26;-0.50;99.90
28677;DHT22;15858;48.338;11.078;2023-02-27T09:29:52;-0.50;99.90
28677;DHT22;15858;48.338;11.078;2023-02-27T09:32:19;-0.40;99.90
28677;DHT22;15858;48.338;11.078;2023-02-27T09:34:46;-0.40;99.90
28677;DHT22;15858;48.338;11.078;2023-02-27T09:37:12;-0.30;99.90
28677;DHT22;15858;48.338;11.078;2023-02-27T09:39:39;-0.40;99.90
28677;DHT22;15858;48.338;11.078;2023-02-27T09:42:21;-0.30;99.90
28677;DHT22;15858;48.338;11.078;2023-02-27T09:44:51;-0.30;99.90
28677;DHT22;15858;48.338;11.078;2023-02-27T09:47:38;-0.30;99.90
28677;DHT22;15858;48.338;11.078;2023-02-27T09:50:17;-0.20;99.90
28677;DHT22;15858;48.338;11.078;2023-02-27T09:52:46;-0.20;99.90
28677;DHT22;15858;48.338;11.078;2023-02-27T09:55:18;-0.10;99.90
28677;DHT22;15858;48.338;11.078;2023-02-27T10:03:17;-0.10;99.90
28677;DHT22;15858;48.338;11.078;2023-02-27T10:08:48;-0.10;99.90
28677;DHT22;15858;48.338;11.078;2023-02-27T10:11:21;-0.30;99.90
28677;DHT22;15858;48.338;11.078;2023-02-27T10:14:09;-0.30;99.90
28677;DHT22;15858;48.338;11.078;2023-02-27T10:16:40;-0.30;99.90
28677;DHT22;15858;48.338;11.078;2023-02-27T10:19:15;-0.30;99.90
28677;DHT22;15858;48.338;11.078;2023-02-27T10:21:46;-0.20;99.90
28677;DHT22;15858;48.338;11.078;2023-02-27T10:26:50;-0.20;99.90
28677;DHT22;15858;48.338;11.078;2023-02-27T10:32:01;-0.10;99.90
28677;DHT22;15858;48.338;11.078;2023-02-27T10:34:29;-0.10;99.90
28677;DHT22;15858;48.338;11.078;2023-02-27T10:37:00;-0.10;99.90
28677;DHT22;15858;48.338;11.078;2023-02-27T10:39:29;-0.10;99.90
28677;DHT22;15858;48.338;11.078;2023-02-27T10:42:04;0.00;99.90
28677;DHT22;15858;48.338;11.078;2023-02-27T10:44:31;0.10;99.90
28677;DHT22;15858;48.338;11.078;2023-02-27T10:46:58;-0.10;99.90
28677;DHT22;15858;48.338;11.078;2023-02-27T10:49:25;0.00;99.90
28677;DHT22;15858;48.338;11.078;2023-02-27T10:52:11;-0.10;99.90
28677;DHT22;15858;48.338;11.078;2023-02-27T10:54:40;0.00;99.90
28677;DHT22;15858;48.338;11.078;2023-02-27T10:57:30;0.00;99.90
28677;DHT22;15858;48.338;11.078;2023-02-27T11:00:03;0.10;99.90
28677;DHT22;15858;48.338;11.078;2023-02-27T11:02:38;0.20;99.90
28677;DHT22;15858;48.338;11.078;2023-02-27T11:05:30;0.30;99.90
28677;DHT22;15858;48.338;11.078;2023-02-27T11:08:29;0.30;99.90
28677;DHT22;15858;48.338;11.078;2023-02-27T11:11:07;0.30;99.90
28677;DHT22;15858;48.338;11.078;2023-02-27T11:13:40;0.30;99.90
28677;DHT22;15858;48.338;11.078;2023-02-27T11:18:41;0.40;99.90
28677;DHT22;15858;48.338;11.078;2023-02-27T11:21:12;0.40;99.90
28677;DHT22;15858;48.338;11.078;2023-02-27T11:24:02;0.50;99.90
28677;DHT22;15858;48.338;11.078;2023-02-27T11:26:32;0.50;99.90
28677;DHT22;15858;48.338;11.078;2023-02-27T11:31:35;0.30;99.90
28677;DHT22;15858;48.338;11.078;2023-02-27T11:34:03;0.40;99.90
28677;DHT22;15858;48.338;11.078;2023-02-27T11:36:44;0.40;99.90
28677;DHT22;15858;48.338;11.078;2023-02-27T11:39:24;0.50;99.90
28677;DHT22;15858;48.338;11.078;2023-02-27T11:41:53;0.40;99.90
28677;DHT22;15858;48.338;11.078;2023-02-27T11:44:24;0.40;99.90
28677;DHT22;15858;48.338;11.078;2023-02-27T11:47:19;0.40;99.90
28677;DHT22;15858;48.338;11.078;2023-02-27T11:50:02;0.50;99.90
28677;DHT22;15858;48.338;11.078;2023-02-27T11:52:36;0.60;99.90
28677;DHT22;15858;48.338;11.078;2023-02-27T11:55:13;0.50;99.90
28677;DHT22;15858;48.338;11.078;2023-02-27T11:57:42;0.30;99.90
28677;DHT22;15858;48.338;11.078;2023-02-27T12:01:02;0.30;99.90
28677;DHT22;15858;48.338;11.078;2023-02-27T12:04:19;0.30;99.90
28677;DHT22;15858;48.338;11.078;2023-02-27T12:06:25;0.30;99.90
28677;DHT22;15858;48.338;11.078;2023-02-27T12:08:57;0.30;99.90
28677;DHT22;15858;48.338;11.078;2023-02-27T12:11:41;0.40;99.90
28677;DHT22;15858;48.338;11.078;2023-02-27T12:14:17;0.40;99.90
28677;DHT22;15858;48.338;11.078;2023-02-27T12:17:01;0.50;99.90
28677;DHT22;15858;48.338;11.078;2023-02-27T12:19:37;0.50;99.90
28677;DHT22;15858;48.338;11.078;2023-02-27T12:22:21;0.50;99.90
28677;DHT22;15858;48.338;11.078;2023-02-27T12:25:03;0.70;99.90
28677;DHT22;15858;48.338;11.078;2023-02-27T12:27:36;0.80;99.90
28677;DHT22;15858;48.338;11.078;2023-02-27T12:30:16;0.80;99.90
28677;DHT22;15858;48.338;11.078;2023-02-27T12:33:02;0.70;99.90
28677;DHT22;15858;48.338;11.078;2023-02-27T12:35:33;0.70;99.90
28677;DHT22;15858;48.338;11.078;2023-02-27T12:38:00;0.70;99.90
28677;DHT22;15858;48.338;11.078;2023-02-27T12:40:37;0.80;99.90
28677;DHT22;15858;48.338;11.078;2023-02-27T12:46:01;0.60;99.90
28677;DHT22;15858;48.338;11.078;2023-02-27T12:54:26;0.70;99.90
28677;DHT22;15858;48.338;11.078;2023-02-27T12:57:27;0.70;99.90
28677;DHT22;15858;48.338;11.078;2023-02-27T13:00:02;0.70;99.90
28677;DHT22;15858;48.338;11.078;2023-02-27T13:10:50;0.60;99.90
28677;DHT22;15858;48.338;11.078;2023-02-27T13:13:30;0.50;99.90
28677;DHT22;15858;48.338;11.078;2023-02-27T13:16:06;0.60;99.90
28677;DHT22;15858;48.338;11.078;2023-02-27T13:21:58;0.60;99.90
28677;DHT22;15858;48.338;11.078;2023-02-27T13:24:29;0.60;99.90
28677;DHT22;15858;48.338;11.078;2023-02-27T13:30:11;0.60;99.90
28677;DHT22;15858;48.338;11.078;2023-02-27T13:32:54;0.60;99.90
28677;DHT22;15858;48.338;11.078;2023-02-27T13:35:47;0.60;99.90
28677;DHT22;15858;48.338;11.078;2023-02-27T13:38:43;0.60;99.90
28677;DHT22;15858;48.338;11.078;2023-02-27T13:43:47;0.80;99.90
28677;DHT22;15858;48.338;11.078;2023-02-27T13:46:28;0.80;99.90
28677;DHT22;15858;48.338;11.078;2023-02-27T13:56:47;0.70;99.90
28677;DHT22;15858;48.338;11.078;2023-02-27T13:59:30;0.60;99.90
28677;DHT22;15858;48.338;11.078;2023-02-27T14:04:34;0.60;99.90
28677;DHT22;15858;48.338;11.078;2023-02-27T14:07:10;0.50;99.90
28677;DHT22;15858;48.338;11.078;2023-02-27T14:09:41;0.60;99.90
28677;DHT22;15858;48.338;11.078;2023-02-27T14:12:48;0.50;99.90
28677;DHT22;15858;48.338;11.078;2023-02-27T14:17:49;0.70;99.90
28677;DHT22;15858;48.338;11.078;2023-02-27T14:28:03;0.90;99.90
28677;DHT22;15858;48.338;11.078;2023-02-27T14:30:36;0.90;99.90
28677;DHT22;15858;48.338;11.078;2023-02-27T14:33:14;0.80;99.90
28677;DHT22;15858;48.338;11.078;2023-02-27T14:35:49;0.70;99.90
28677;DHT22;15858;48.338;11.078;2023-02-27T14:38:19;0.70;99.90
28677;DHT22;15858;48.338;11.078;2023-02-27T14:43:44;0.90;99.90
28677;DHT22;15858;48.338;11.078;2023-02-27T14:46:34;0.70;99.90
28677;DHT22;15858;48.338;11.078;2023-02-27T14:49:23;0.60;99.90
28677;DHT22;15858;48.338;11.078;2023-02-27T14:51:50;0.80;99.90
28677;DHT22;15858;48.338;11.078;2023-02-27T14:54:21;0.70;99.90
28677;DHT22;15858;48.338;11.078;2023-02-27T14:56:58;0.60;99.90
28677;DHT22;15858;48.338;11.078;2023-02-27T14:59:26;0.60;99.90
28677;DHT22;15858;48.338;11.078;2023-02-27T15:01:54;0.60;99.90
28677;DHT22;15858;48.338;11.078;2023-02-27T15:04:25;0.60;99.90
28677;DHT22;15858;48.338;11.078;2023-02-27T15:06:54;0.60;99.90
28677;DHT22;15858;48.338;11.078;2023-02-27T15:09:24;0.50;99.90
28677;DHT22;15858;48.338;11.078;2023-02-27T15:11:53;0.50;99.90
28677;DHT22;15858;48.338;11.078;2023-02-27T15:14:33;0.60;99.90
28677;DHT22;15858;48.338;11.078;2023-02-27T15:17:00;0.60;99.90
28677;DHT22;15858;48.338;11.078;2023-02-27T15:19:29;0.40;99.90
28677;DHT22;15858;48.338;11.078;2023-02-27T15:21:58;0.40;99.90
28677;DHT22;15858;48.338;11.078;2023-02-27T15:27:04;0.30;99.90
28677;DHT22;15858;48.338;11.078;2023-02-27T15:29:41;0.50;99.90
28677;DHT22;15858;48.338;11.078;2023-02-27T15:32:40;0.60;99.90
28677;DHT22;15858;48.338;11.078;2023-02-27T15:35:14;0.60;99.90
28677;DHT22;15858;48.338;11.078;2023-02-27T15:37:49;0.70;99.90
28677;DHT22;15858;48.338;11.078;2023-02-27T15:40:24;0.60;99.90
28677;DHT22;15858;48.338;11.078;2023-02-27T15:42:52;0.60;99.90
28677;DHT22;15858;48.338;11.078;2023-02-27T15:45:22;0.40;99.90
28677;DHT22;15858;48.338;11.078;2023-02-27T15:47:50;0.30;99.90
28677;DHT22;15858;48.338;11.078;2023-02-27T15:55:35;0.40;99.90
28677;DHT22;15858;48.338;11.078;2023-02-27T15:58:13;0.50;99.90
28677;DHT22;15858;48.338;11.078;2023-02-27T16:00:42;0.50;99.90
28677;DHT22;15858;48.338;11.078;2023-02-27T16:03:10;0.60;99.90
28677;DHT22;15858;48.338;11.078;2023-02-27T16:05:40;0.40;99.90
28677;DHT22;15858;48.338;11.078;2023-02-27T16:08:15;0.40;99.90
28677;DHT22;15858;48.338;11.078;2023-02-27T16:10:44;0.40;99.90
28677;DHT22;15858;48.338;11.078;2023-02-27T16:16:04;0.40;99.90
28677;DHT22;15858;48.338;11.078;2023-02-27T16:18:52;0.50;99.90
28677;DHT22;15858;48.338;11.078;2023-02-27T16:21:21;0.40;99.90
28677;DHT22;15858;48.338;11.078;2023-02-27T16:23:49;0.50;99.90
28677;DHT22;15858;48.338;11.078;2023-02-27T16:26:30;0.60;99.90
28677;DHT22;15858;48.338;11.078;2023-02-27T16:29:24;0.50;99.90
28677;DHT22;15858;48.338;11.078;2023-02-27T16:31:54;0.60;99.90
28677;DHT22;15858;48.338;11.078;2023-02-27T16:34:31;0.40;99.90
28677;DHT22;15858;48.338;11.078;2023-02-27T16:37:24;0.50;99.90
28677;DHT22;15858;48.338;11.078;2023-02-27T16:39:51;0.50;99.90
28677;DHT22;15858;48.338;11.078;2023-02-27T16:42:18;0.40;99.90
28677;DHT22;15858;48.338;11.078;2023-02-27T16:44:45;0.30;99.90
28677;DHT22;15858;48.338;11.078;2023-02-27T16:47:12;0.30;99.90
28677;DHT22;15858;48.338;11.078;2023-02-27T16:49:38;0.30;99.90
28677;DHT22;15858;48.338;11.078;2023-02-27T16:52:10;0.40;99.90
28677;DHT22;15858;48.338;11.078;2023-02-27T16:54:37;0.40;99.90
28677;DHT22;15858;48.338;11.078;2023-02-27T16:57:03;0.30;99.90
28677;DHT22;15858;48.338;11.078;2023-02-27T16:59:31;0.30;99.90
28677;DHT22;15858;48.338;11.078;2023-02-27T17:02:02;0.40;99.90
28677;DHT22;15858;48.338;11.078;2023-02-27T17:04:29;0.30;99.90
28677;DHT22;15858;48.338;11.078;2023-02-27T17:06:58;0.30;99.90
28677;DHT22;15858;48.338;11.078;2023-02-27T17:09:25;0.20;99.90
28677;DHT22;15858;48.338;11.078;2023-02-27T17:11:52;0.30;99.90
28677;DHT22;15858;48.338;11.078;2023-02-27T17:14:19;0.20;99.90
28677;DHT22;15858;48.338;11.078;2023-02-27T17:16:46;0.40;99.90
28677;DHT22;15858;48.338;11.078;2023-02-27T17:19:13;0.20;99.90
28677;DHT22;15858;48.338;11.078;2023-02-27T17:21:40;0.30;99.90
28677;DHT22;15858;48.338;11.078;2023-02-27T17:24:07;0.20;99.90
28677;DHT22;15858;48.338;11.078;2023-02-27T17:26:34;0.20;99.90
28677;DHT22;15858;48.338;11.078;2023-02-27T17:29:01;0.20;99.90
28677;DHT22;15858;48.338;11.078;2023-02-27T17:31:28;0.30;99.90
28677;DHT22;15858;48.338;11.078;2023-02-27T17:33:55;0.10;99.90
28677;DHT22;15858;48.338;11.078;2023-02-27T17:36:22;0.00;99.90
28677;DHT22;15858;48.338;11.078;2023-02-27T17:38:58;0.10;99.90
28677;DHT22;15858;48.338;11.078;2023-02-27T17:41:25;0.10;99.90
28677;DHT22;15858;48.338;11.078;2023-02-27T17:43:53;0.00;99.90
28677;DHT22;15858;48.338;11.078;2023-02-27T17:46:24;0.00;99.90
28677;DHT22;15858;48.338;11.078;2023-02-27T17:48:52;-0.10;99.90
28677;DHT22;15858;48.338;11.078;2023-02-27T17:51:19;0.00;99.90
28677;DHT22;15858;48.338;11.078;2023-02-27T17:53:45;0.00;99.90
28677;DHT22;15858;48.338;11.078;2023-02-27T17:56:13;0.10;99.90
28677;DHT22;15858;48.338;11.078;2023-02-27T17:58:40;0.10;99.90
28677;DHT22;15858;48.338;11.078;2023-02-27T18:01:15;0.00;99.90